sensor_id;sensor_type;location;lat;lon;timestamp;pressure;altitude;pressure_sealevel;temperature;humidity
21588;BME280;10956;48.878;13.316;2023-04-16T00:00:10;93824.69;;;4.90;100.00
21588;BME280;10956;48.878;13.316;2023-04-16T00:02:35;93823.59;;;4.85;100.00
21588;BME280;10956;48.878;13.316;2023-04-16T00:05:01;93824.06;;;4.82;100.00
21588;BME280;10956;48.878;13.316;2023-04-16T00:07:26;93826.13;;;4.80;100.00
21588;BME280;10956;48.878;13.316;2023-04-16T00:09:51;93819.81;;;4.76;100.00
21588;BME280;10956;48.878;13.316;2023-04-16T00:12:17;93823.69;;;4.74;100.00
21588;BME280;10956;48.878;13.316;2023-04-16T00:14:42;93818.22;;;4.75;100.00
21588;BME280;10956;48.878;13.316;2023-04-16T00:17:08;93832.31;;;4.74;100.00
21588;BME280;10956;48.878;13.316;2023-04-16T00:19:34;93827.31;;;4.73;100.00
21588;BME280;10956;48.878;13.316;2023-04-16T00:22:00;93829.13;;;4.72;100.00
21588;BME280;10956;48.878;13.316;2023-04-16T00:24:25;93827.06;;;4.74;100.00
21588;BME280;10956;48.878;13.316;2023-04-16T00:26:51;93822.03;;;4.68;100.00
21588;BME280;10956;48.878;13.316;2023-04-16T00:29:16;93825.91;;;4.65;100.00
21588;BME280;10956;48.878;13.316;2023-04-16T00:31:42;93823.22;;;4.60;100.00
21588;BME280;10956;48.878;13.316;2023-04-16T00:34:07;93831.28;;;4.59;100.00
21588;BME280;10956;48.878;13.316;2023-04-16T00:36:32;93820.53;;;4.55;100.00
21588;BME280;10956;48.878;13.316;2023-04-16T00:38:58;93826.44;;;4.50;100.00
21588;BME280;10956;48.878;13.316;2023-04-16T00:41:23;93831.50;;;4.40;100.00
21588;BME280;10956;48.878;13.316;2023-04-16T00:43:49;93828.50;;;4.32;100.00
21588;BME280;10956;48.878;13.316;2023-04-16T00:46:15;93823.19;;;4.27;100.00
21588;BME280;10956;48.878;13.316;2023-04-16T00:48:42;93823.09;;;4.21;100.00
21588;BME280;10956;48.878;13.316;2023-04-16T00:51:08;93826.09;;;4.13;100.00
21588;BME280;10956;48.878;13.316;2023-04-16T00:53:34;93826.56;;;4.10;100.00
21588;BME280;10956;48.878;13.316;2023-04-16T00:56:06;93823.41;;;4.08;100.00
21588;BME280;10956;48.878;13.316;2023-04-16T00:58:33;93824.97;;;4.09;100.00
21588;BME280;10956;48.878;13.316;2023-04-16T01:00:59;93829.41;;;4.09;100.00
21588;BME280;10956;48.878;13.316;2023-04-16T01:03:41;93834.28;;;4.05;100.00
21588;BME280;10956;48.878;13.316;2023-04-16T01:06:07;93829.00;;;4.00;100.00
21588;BME280;10956;48.878;13.316;2023-04-16T01:08:33;93830.47;;;3.96;100.00
21588;BME280;10956;48.878;13.316;2023-04-16T01:10:59;93829.38;;;3.92;100.00
21588;BME280;10956;48.878;13.316;2023-04-16T01:13:24;93837.41;;;3.91;100.00
21588;BME280;10956;48.878;13.316;2023-04-16T01:15:50;93829.81;;;3.89;100.00
21588;BME280;10956;48.878;13.316;2023-04-16T01:18:17;93831.09;;;3.86;100.00
21588;BME280;10956;48.878;13.316;2023-04-16T01:20:43;93835.97;;;3.83;100.00
21588;BME280;10956;48.878;13.316;2023-04-16T01:23:09;93840.84;;;3.79;100.00
21588;BME280;10956;48.878;13.316;2023-04-16T01:25:35;93848.91;;;3.78;100.00
21588;BME280;10956;48.878;13.316;2023-04-16T01:28:01;93843.94;;;3.76;100.00
21588;BME280;10956;48.878;13.316;2023-04-16T01:30:26;93847.00;;;3.73;100.00
21588;BME280;10956;48.878;13.316;2023-04-16T01:32:51;93850.28;;;3.69;100.00
21588;BME280;10956;48.878;13.316;2023-04-16T01:35:17;93853.91;;;3.68;100.00
21588;BME280;10956;48.878;13.316;2023-04-16T01:37:43;93858.13;;;3.69;100.00
21588;BME280;10956;48.878;13.316;2023-04-16T01:40:09;93849.84;;;3.72;100.00
21588;BME280;10956;48.878;13.316;2023-04-16T01:42:34;93860.91;;;3.79;100.00
21588;BME280;10956;48.878;13.316;2023-04-16T01:45:00;93855.69;;;3.79;100.00
21588;BME280;10956;48.878;13.316;2023-04-16T01:47:25;93858.06;;;3.80;100.00
21588;BME280;10956;48.878;13.316;2023-04-16T01:49:51;93860.00;;;3.85;100.00
21588;BME280;10956;48.878;13.316;2023-04-16T01:52:16;93853.53;;;3.87;100.00
21588;BME280;10956;48.878;13.316;2023-04-16T01:54:42;93858.28;;;3.91;100.00
21588;BME280;10956;48.878;13.316;2023-04-16T01:57:08;93858.59;;;3.94;100.00
21588;BME280;10956;48.878;13.316;2023-04-16T01:59:33;93868.09;;;4.00;100.00
21588;BME280;10956;48.878;13.316;2023-04-16T02:02:10;93870.25;;;4.03;100.00
21588;BME280;10956;48.878;13.316;2023-04-16T02:04:39;93869.31;;;4.09;100.00
21588;BME280;10956;48.878;13.316;2023-04-16T02:07:06;93874.06;;;4.12;100.00
21588;BME280;10956;48.878;13.316;2023-04-16T02:09:36;93871.44;;;4.12;100.00
21588;BME280;10956;48.878;13.316;2023-04-16T02:12:01;93870.41;;;4.13;100.00
21588;BME280;10956;48.878;13.316;2023-04-16T02:14:28;93869.88;;;4.11;100.00
21588;BME280;10956;48.878;13.316;2023-04-16T02:16:53;93874.06;;;4.12;100.00
21588;BME280;10956;48.878;13.316;2023-04-16T02:19:19;93883.94;;;4.10;100.00
21588;BME280;10956;48.878;13.316;2023-04-16T02:21:44;93880.84;;;4.13;100.00
21588;BME280;10956;48.878;13.316;2023-04-16T02:24:10;93881.56;;;4.09;100.00
21588;BME280;10956;48.878;13.316;2023-04-16T02:26:36;93882.81;;;4.06;100.00
21588;BME280;10956;48.878;13.316;2023-04-16T02:29:01;93879.63;;;4.04;100.00
21588;BME280;10956;48.878;13.316;2023-04-16T02:31:26;93879.31;;;4.01;100.00
21588;BME280;10956;48.878;13.316;2023-04-16T02:33:53;93879.00;;;3.97;100.00
21588;BME280;10956;48.878;13.316;2023-04-16T02:36:18;93887.03;;;3.96;100.00
21588;BME280;10956;48.878;13.316;2023-04-16T02:38:44;93883.63;;;3.95;100.00
21588;BME280;10956;48.878;13.316;2023-04-16T02:41:09;93891.00;;;3.98;100.00
21588;BME280;10956;48.878;13.316;2023-04-16T02:43:35;93895.19;;;3.99;100.00
21588;BME280;10956;48.878;13.316;2023-04-16T02:46:00;93888.50;;;4.03;100.00
21588;BME280;10956;48.878;13.316;2023-04-16T02:48:26;93890.88;;;4.05;100.00
21588;BME280;10956;48.878;13.316;2023-04-16T02:50:51;93886.44;;;4.05;100.00
21588;BME280;10956;48.878;13.316;2023-04-16T02:53:16;93886.44;;;4.05;100.00
21588;BME280;10956;48.878;13.316;2023-04-16T02:55:51;93886.44;;;4.05;100.00
21588;BME280;10956;48.878;13.316;2023-04-16T02:58:18;93887.69;;;4.03;100.00
21588;BME280;10956;48.878;13.316;2023-04-16T03:00:44;93895.28;;;4.04;100.00
21588;BME280;10956;48.878;13.316;2023-04-16T03:03:09;93896.31;;;4.03;100.00
21588;BME280;10956;48.878;13.316;2023-04-16T03:05:34;93893.47;;;4.05;100.00
21588;BME280;10956;48.878;13.316;2023-04-16T03:08:00;93892.69;;;4.04;100.00
21588;BME280;10956;48.878;13.316;2023-04-16T03:10:25;93892.91;;;4.03;100.00
21588;BME280;10956;48.878;13.316;2023-04-16T03:12:51;93892.72;;;3.93;100.00
21588;BME280;10956;48.878;13.316;2023-04-16T03:15:16;93897.13;;;3.92;100.00
21588;BME280;10956;48.878;13.316;2023-04-16T03:17:41;93905.66;;;3.87;100.00
21588;BME280;10956;48.878;13.316;2023-04-16T03:20:07;93903.63;;;3.78;100.00
21588;BME280;10956;48.878;13.316;2023-04-16T03:22:33;93905.91;;;3.74;100.00
21588;BME280;10956;48.878;13.316;2023-04-16T03:24:58;93912.16;;;3.73;100.00
21588;BME280;10956;48.878;13.316;2023-04-16T03:27:24;93921.56;;;3.74;100.00
21588;BME280;10956;48.878;13.316;2023-04-16T03:29:49;93921.22;;;3.71;100.00
21588;BME280;10956;48.878;13.316;2023-04-16T03:32:14;93925.97;;;3.74;100.00
21588;BME280;10956;48.878;13.316;2023-04-16T03:34:41;93925.50;;;3.77;100.00
21588;BME280;10956;48.878;13.316;2023-04-16T03:37:06;93934.69;;;3.79;100.00
21588;BME280;10956;48.878;13.316;2023-04-16T03:39:35;93929.25;;;3.81;100.00
21588;BME280;10956;48.878;13.316;2023-04-16T03:42:01;93928.69;;;3.79;100.00
21588;BME280;10956;48.878;13.316;2023-04-16T03:44:27;93937.53;;;3.78;100.00
21588;BME280;10956;48.878;13.316;2023-04-16T03:46:53;93942.28;;;3.81;100.00
21588;BME280;10956;48.878;13.316;2023-04-16T03:49:18;93946.69;;;3.80;100.00
21588;BME280;10956;48.878;13.316;2023-04-16T03:51:43;93948.97;;;3.77;100.00
21588;BME280;10956;48.878;13.316;2023-04-16T03:54:09;93955.19;;;3.76;100.00
21588;BME280;10956;48.878;13.316;2023-04-16T03:56:34;93950.56;;;3.54;100.00
21588;BME280;10956;48.878;13.316;2023-04-16T03:58:59;93954.09;;;3.48;100.00
21588;BME280;10956;48.878;13.316;2023-04-16T04:01:25;93966.31;;;3.36;100.00
21588;BME280;10956;48.878;13.316;2023-04-16T04:03:50;93967.13;;;3.25;100.00
21588;BME280;10956;48.878;13.316;2023-04-16T04:06:16;93970.63;;;3.19;100.00
21588;BME280;10956;48.878;13.316;2023-04-16T04:08:41;93977.28;;;3.03;100.00
21588;BME280;10956;48.878;13.316;2023-04-16T04:11:06;93971.94;;;2.86;100.00
21588;BME280;10956;48.878;13.316;2023-04-16T04:13:32;93972.81;;;2.80;100.00
21588;BME280;10956;48.878;13.316;2023-04-16T04:15:57;93972.91;;;2.74;100.00
21588;BME280;10956;48.878;13.316;2023-04-16T04:18:23;93972.56;;;2.70;100.00
21588;BME280;10956;48.878;13.316;2023-04-16T04:20:48;93963.41;;;2.68;100.00
21588;BME280;10956;48.878;13.316;2023-04-16T04:23:13;93973.19;;;2.54;100.00
21588;BME280;10956;48.878;13.316;2023-04-16T04:25:39;93975.41;;;2.39;100.00
21588;BME280;10956;48.878;13.316;2023-04-16T04:28:04;93972.41;;;2.23;100.00
21588;BME280;10956;48.878;13.316;2023-04-16T04:30:30;93986.06;;;2.19;100.00
21588;BME280;10956;48.878;13.316;2023-04-16T04:32:55;93987.28;;;2.16;100.00
21588;BME280;10956;48.878;13.316;2023-04-16T04:35:20;93982.66;;;2.18;100.00
21588;BME280;10956;48.878;13.316;2023-04-16T04:37:46;93976.44;;;2.19;100.00
21588;BME280;10956;48.878;13.316;2023-04-16T04:40:11;93977.25;;;2.20;100.00
21588;BME280;10956;48.878;13.316;2023-04-16T04:42:37;93983.25;;;2.20;100.00
21588;BME280;10956;48.878;13.316;2023-04-16T04:45:03;93983.03;;;2.22;100.00
21588;BME280;10956;48.878;13.316;2023-04-16T04:47:29;93992.63;;;2.21;100.00
21588;BME280;10956;48.878;13.316;2023-04-16T04:49:54;93996.38;;;2.25;100.00
21588;BME280;10956;48.878;13.316;2023-04-16T04:52:19;93989.94;;;2.28;100.00
21588;BME280;10956;48.878;13.316;2023-04-16T04:54:45;93992.91;;;2.32;100.00
21588;BME280;10956;48.878;13.316;2023-04-16T04:57:10;93989.78;;;2.41;100.00
21588;BME280;10956;48.878;13.316;2023-04-16T04:59:36;93996.84;;;2.52;100.00
21588;BME280;10956;48.878;13.316;2023-04-16T05:02:01;93999.13;;;2.61;100.00
21588;BME280;10956;48.878;13.316;2023-04-16T05:04:28;94003.22;;;2.68;100.00
21588;BME280;10956;48.878;13.316;2023-04-16T05:06:54;94010.00;;;2.69;100.00
21588;BME280;10956;48.878;13.316;2023-04-16T05:09:19;94006.97;;;2.72;100.00
21588;BME280;10956;48.878;13.316;2023-04-16T05:11:44;94012.06;;;2.79;100.00
21588;BME280;10956;48.878;13.316;2023-04-16T05:14:10;94011.97;;;2.85;100.00
21588;BME280;10956;48.878;13.316;2023-04-16T05:16:36;94007.38;;;2.99;100.00
21588;BME280;10956;48.878;13.316;2023-04-16T05:19:02;94010.91;;;3.05;100.00
21588;BME280;10956;48.878;13.316;2023-04-16T05:21:27;94005.59;;;3.11;100.00
21588;BME280;10956;48.878;13.316;2023-04-16T05:23:53;94005.38;;;3.24;100.00
21588;BME280;10956;48.878;13.316;2023-04-16T05:26:18;94014.56;;;3.39;100.00
21588;BME280;10956;48.878;13.316;2023-04-16T05:28:44;94020.13;;;3.54;100.00
21588;BME280;10956;48.878;13.316;2023-04-16T05:31:09;94011.53;;;3.65;100.00
21588;BME280;10956;48.878;13.316;2023-04-16T05:33:34;94019.78;;;3.74;100.00
21588;BME280;10956;48.878;13.316;2023-04-16T05:36:00;94018.75;;;3.86;100.00
21588;BME280;10956;48.878;13.316;2023-04-16T05:38:25;94017.63;;;3.94;100.00
21588;BME280;10956;48.878;13.316;2023-04-16T05:40:51;94023.72;;;4.11;100.00
21588;BME280;10956;48.878;13.316;2023-04-16T05:43:16;94018.47;;;4.23;100.00
21588;BME280;10956;48.878;13.316;2023-04-16T05:45:42;94023.19;;;4.38;100.00
21588;BME280;10956;48.878;13.316;2023-04-16T05:48:07;94016.50;;;4.42;100.00
21588;BME280;10956;48.878;13.316;2023-04-16T05:50:36;94031.22;;;4.48;100.00
21588;BME280;10956;48.878;13.316;2023-04-16T05:53:04;94017.88;;;4.73;100.00
21588;BME280;10956;48.878;13.316;2023-04-16T05:55:30;94025.19;;;4.88;100.00
21588;BME280;10956;48.878;13.316;2023-04-16T05:57:56;94025.81;;;4.95;100.00
21588;BME280;10956;48.878;13.316;2023-04-16T06:00:21;94027.91;;;5.09;100.00
21588;BME280;10956;48.878;13.316;2023-04-16T06:02:47;94038.53;;;5.19;100.00
21588;BME280;10956;48.878;13.316;2023-04-16T06:05:12;94047.25;;;5.25;100.00
21588;BME280;10956;48.878;13.316;2023-04-16T06:07:37;94051.84;;;5.35;100.00
21588;BME280;10956;48.878;13.316;2023-04-16T06:10:03;94053.75;;;5.39;100.00
21588;BME280;10956;48.878;13.316;2023-04-16T06:12:28;94056.59;;;5.55;100.00
21588;BME280;10956;48.878;13.316;2023-04-16T06:14:55;94058.28;;;5.61;100.00
21588;BME280;10956;48.878;13.316;2023-04-16T06:17:20;94060.81;;;5.72;100.00
21588;BME280;10956;48.878;13.316;2023-04-16T06:19:45;94065.94;;;5.84;100.00
21588;BME280;10956;48.878;13.316;2023-04-16T06:22:11;94068.34;;;6.02;100.00
21588;BME280;10956;48.878;13.316;2023-04-16T06:24:36;94066.47;;;6.20;100.00
21588;BME280;10956;48.878;13.316;2023-04-16T06:27:01;94067.00;;;6.38;100.00
21588;BME280;10956;48.878;13.316;2023-04-16T06:29:27;94070.41;;;6.61;100.00
21588;BME280;10956;48.878;13.316;2023-04-16T06:31:53;94066.31;;;6.70;100.00
21588;BME280;10956;48.878;13.316;2023-04-16T06:34:19;94076.19;;;6.85;100.00
21588;BME280;10956;48.878;13.316;2023-04-16T06:36:44;94071.75;;;6.85;100.00
21588;BME280;10956;48.878;13.316;2023-04-16T06:39:09;94056.44;;;6.99;100.00
21588;BME280;10956;48.878;13.316;2023-04-16T06:41:35;94063.94;;;7.17;100.00
21588;BME280;10956;48.878;13.316;2023-04-16T06:44:00;94066.13;;;7.25;100.00
21588;BME280;10956;48.878;13.316;2023-04-16T06:46:26;94066.81;;;7.42;100.00
21588;BME280;10956;48.878;13.316;2023-04-16T06:48:51;94067.47;;;7.60;100.00
21588;BME280;10956;48.878;13.316;2023-04-16T06:51:16;94066.47;;;7.66;100.00
21588;BME280;10956;48.878;13.316;2023-04-16T06:53:42;94058.44;;;7.77;100.00
21588;BME280;10956;48.878;13.316;2023-04-16T06:56:07;94062.22;;;7.92;100.00
21588;BME280;10956;48.878;13.316;2023-04-16T06:58:33;94062.53;;;8.00;100.00
21588;BME280;10956;48.878;13.316;2023-04-16T07:00:58;94069.28;;;8.28;100.00
21588;BME280;10956;48.878;13.316;2023-04-16T07:03:24;94067.31;;;8.46;100.00
21588;BME280;10956;48.878;13.316;2023-04-16T07:05:49;94071.72;;;8.40;100.00
21588;BME280;10956;48.878;13.316;2023-04-16T07:08:15;94071.72;;;8.40;100.00
21588;BME280;10956;48.878;13.316;2023-04-16T07:10:40;94070.25;;;8.59;100.00
21588;BME280;10956;48.878;13.316;2023-04-16T07:13:05;94068.91;;;8.52;100.00
21588;BME280;10956;48.878;13.316;2023-04-16T07:15:31;94072.13;;;8.64;100.00
21588;BME280;10956;48.878;13.316;2023-04-16T07:17:56;94076.19;;;8.97;100.00
21588;BME280;10956;48.878;13.316;2023-04-16T07:20:22;94078.84;;;9.12;100.00
21588;BME280;10956;48.878;13.316;2023-04-16T07:22:47;94081.03;;;8.63;100.00
21588;BME280;10956;48.878;13.316;2023-04-16T07:25:13;94077.84;;;8.14;100.00
21588;BME280;10956;48.878;13.316;2023-04-16T07:27:38;94080.22;;;7.78;100.00
21588;BME280;10956;48.878;13.316;2023-04-16T07:30:04;94075.81;;;7.52;100.00
21588;BME280;10956;48.878;13.316;2023-04-16T07:32:30;94075.81;;;7.25;100.00
21588;BME280;10956;48.878;13.316;2023-04-16T07:34:55;94074.09;;;7.08;100.00
21588;BME280;10956;48.878;13.316;2023-04-16T07:37:21;94078.66;;;6.96;100.00
21588;BME280;10956;48.878;13.316;2023-04-16T07:39:46;94078.56;;;6.86;100.00
21588;BME280;10956;48.878;13.316;2023-04-16T07:42:12;94079.72;;;6.73;100.00
21588;BME280;10956;48.878;13.316;2023-04-16T07:44:38;94081.97;;;6.65;100.00
21588;BME280;10956;48.878;13.316;2023-04-16T07:47:03;94084.28;;;6.61;100.00
21588;BME280;10956;48.878;13.316;2023-04-16T07:49:29;94084.84;;;6.63;100.00
21588;BME280;10956;48.878;13.316;2023-04-16T07:51:54;94078.31;;;6.66;100.00
21588;BME280;10956;48.878;13.316;2023-04-16T07:54:20;94084.47;;;6.76;100.00
21588;BME280;10956;48.878;13.316;2023-04-16T07:56:45;94078.25;;;6.83;100.00
21588;BME280;10956;48.878;13.316;2023-04-16T07:59:11;94076.19;;;6.85;100.00
21588;BME280;10956;48.878;13.316;2023-04-16T08:01:36;94077.47;;;6.82;100.00
21588;BME280;10956;48.878;13.316;2023-04-16T08:04:02;94088.44;;;6.79;100.00
21588;BME280;10956;48.878;13.316;2023-04-16T08:06:27;94087.09;;;6.76;100.00
21588;BME280;10956;48.878;13.316;2023-04-16T08:08:53;94086.84;;;6.78;100.00
21588;BME280;10956;48.878;13.316;2023-04-16T08:11:18;94087.09;;;6.76;100.00
21588;BME280;10956;48.878;13.316;2023-04-16T08:13:44;94092.09;;;6.78;100.00
21588;BME280;10956;48.878;13.316;2023-04-16T08:16:09;94096.28;;;6.79;100.00
21588;BME280;10956;48.878;13.316;2023-04-16T08:18:35;94094.56;;;6.90;100.00
21588;BME280;10956;48.878;13.316;2023-04-16T08:21:01;94088.72;;;7.04;100.00
21588;BME280;10956;48.878;13.316;2023-04-16T08:23:27;94091.78;;;7.23;100.00
21588;BME280;10956;48.878;13.316;2023-04-16T08:25:53;94102.44;;;7.38;100.00
21588;BME280;10956;48.878;13.316;2023-04-16T08:28:18;94116.19;;;7.51;100.00
21588;BME280;10956;48.878;13.316;2023-04-16T08:30:44;94098.47;;;7.63;100.00
21588;BME280;10956;48.878;13.316;2023-04-16T08:33:10;94104.88;;;7.77;100.00
21588;BME280;10956;48.878;13.316;2023-04-16T08:35:36;94109.78;;;8.00;100.00
21588;BME280;10956;48.878;13.316;2023-04-16T08:38:02;94118.38;;;8.28;100.00
21588;BME280;10956;48.878;13.316;2023-04-16T08:40:30;94117.47;;;8.49;100.00
21588;BME280;10956;48.878;13.316;2023-04-16T08:42:57;94107.53;;;8.56;100.00
21588;BME280;10956;48.878;13.316;2023-04-16T08:45:25;94115.44;;;8.61;100.00
21588;BME280;10956;48.878;13.316;2023-04-16T08:47:51;94113.88;;;8.65;100.00
21588;BME280;10956;48.878;13.316;2023-04-16T08:50:22;94105.00;;;8.77;100.00
21588;BME280;10956;48.878;13.316;2023-04-16T08:52:55;94109.78;;;8.90;100.00
21588;BME280;10956;48.878;13.316;2023-04-16T08:55:26;94115.34;;;8.98;100.00
21588;BME280;10956;48.878;13.316;2023-04-16T08:57:57;94111.47;;;9.16;100.00
21588;BME280;10956;48.878;13.316;2023-04-16T09:00:23;94116.28;;;9.55;100.00
21588;BME280;10956;48.878;13.316;2023-04-16T09:02:49;94117.13;;;9.91;100.00
21588;BME280;10956;48.878;13.316;2023-04-16T09:05:16;94114.25;;;10.23;100.00
21588;BME280;10956;48.878;13.316;2023-04-16T09:07:43;94120.56;;;10.27;100.00
21588;BME280;10956;48.878;13.316;2023-04-16T09:10:10;94117.66;;;10.28;99.19
21588;BME280;10956;48.878;13.316;2023-04-16T09:12:36;94117.66;;;10.33;98.68
21588;BME280;10956;48.878;13.316;2023-04-16T09:15:01;94126.06;;;10.46;98.17
21588;BME280;10956;48.878;13.316;2023-04-16T09:17:28;94127.38;;;10.58;96.86
21588;BME280;10956;48.878;13.316;2023-04-16T09:19:54;94131.00;;;10.78;94.86
21588;BME280;10956;48.878;13.316;2023-04-16T09:22:20;94126.22;;;10.90;93.73
21588;BME280;10956;48.878;13.316;2023-04-16T09:24:45;94134.38;;;10.93;94.31
21588;BME280;10956;48.878;13.316;2023-04-16T09:27:11;94132.00;;;10.97;94.36
21588;BME280;10956;48.878;13.316;2023-04-16T09:29:40;94135.38;;;11.13;93.50
21588;BME280;10956;48.878;13.316;2023-04-16T09:32:07;94137.66;;;11.29;91.83
21588;BME280;10956;48.878;13.316;2023-04-16T09:34:34;94132.34;;;11.40;90.27
21588;BME280;10956;48.878;13.316;2023-04-16T09:37:18;94127.38;;;11.33;91.82
21588;BME280;10956;48.878;13.316;2023-04-16T09:39:44;94131.28;;;11.41;91.70
21588;BME280;10956;48.878;13.316;2023-04-16T09:42:20;94122.66;;;11.74;89.85
21588;BME280;10956;48.878;13.316;2023-04-16T09:44:48;94130.34;;;12.10;88.22
21588;BME280;10956;48.878;13.316;2023-04-16T09:47:13;94122.53;;;12.28;86.65
21588;BME280;10956;48.878;13.316;2023-04-16T09:49:42;94125.31;;;12.42;85.61
21588;BME280;10956;48.878;13.316;2023-04-16T09:52:12;94129.44;;;12.53;87.23
21588;BME280;10956;48.878;13.316;2023-04-16T09:54:52;94130.00;;;12.50;82.60
21588;BME280;10956;48.878;13.316;2023-04-16T09:57:24;94123.56;;;12.61;84.35
21588;BME280;10956;48.878;13.316;2023-04-16T09:59:53;94123.44;;;12.72;83.93
21588;BME280;10956;48.878;13.316;2023-04-16T10:02:25;94123.63;;;12.80;83.77
21588;BME280;10956;48.878;13.316;2023-04-16T10:04:52;94119.22;;;12.71;86.18
21588;BME280;10956;48.878;13.316;2023-04-16T10:07:18;94129.00;;;12.70;88.67
21588;BME280;10956;48.878;13.316;2023-04-16T10:09:43;94136.00;;;12.85;90.12
21588;BME280;10956;48.878;13.316;2023-04-16T10:12:09;94140.63;;;12.98;87.62
21588;BME280;10956;48.878;13.316;2023-04-16T10:14:37;94129.94;;;13.08;85.37
21588;BME280;10956;48.878;13.316;2023-04-16T10:17:02;94134.66;;;13.11;84.77
21588;BME280;10956;48.878;13.316;2023-04-16T10:19:30;94135.34;;;12.98;86.05
21588;BME280;10956;48.878;13.316;2023-04-16T10:21:57;94141.63;;;12.78;85.93
21588;BME280;10956;48.878;13.316;2023-04-16T10:24:24;94145.22;;;12.64;85.45
21588;BME280;10956;48.878;13.316;2023-04-16T10:26:51;94143.41;;;12.59;86.17
21588;BME280;10956;48.878;13.316;2023-04-16T10:29:18;94147.44;;;12.51;86.20
21588;BME280;10956;48.878;13.316;2023-04-16T10:31:45;94139.56;;;12.46;85.64
21588;BME280;10956;48.878;13.316;2023-04-16T10:34:12;94138.53;;;12.42;86.66
21588;BME280;10956;48.878;13.316;2023-04-16T10:36:38;94138.50;;;12.47;87.96
21588;BME280;10956;48.878;13.316;2023-04-16T10:39:11;94137.03;;;12.60;87.98
21588;BME280;10956;48.878;13.316;2023-04-16T10:41:38;94140.38;;;12.71;86.89
21588;BME280;10956;48.878;13.316;2023-04-16T10:44:06;94139.25;;;12.77;86.12
21588;BME280;10956;48.878;13.316;2023-04-16T10:46:53;94142.16;;;12.51;87.12
21588;BME280;10956;48.878;13.316;2023-04-16T10:49:22;94145.25;;;12.29;89.59
21588;BME280;10956;48.878;13.316;2023-04-16T10:51:58;94148.28;;;12.13;89.66
21588;BME280;10956;48.878;13.316;2023-04-16T10:54:25;94146.22;;;12.05;89.60
21588;BME280;10956;48.878;13.316;2023-04-16T10:56:52;94156.13;;;11.89;89.56
21588;BME280;10956;48.878;13.316;2023-04-16T10:59:19;94155.41;;;11.68;90.30
21588;BME280;10956;48.878;13.316;2023-04-16T11:01:55;94148.66;;;11.52;90.91
21588;BME280;10956;48.878;13.316;2023-04-16T11:12:25;94163.63;;;11.02;90.08
21588;BME280;10956;48.878;13.316;2023-04-16T11:14:58;94162.31;;;10.94;90.14
21588;BME280;10956;48.878;13.316;2023-04-16T11:17:27;94156.81;;;10.91;91.70
21588;BME280;10956;48.878;13.316;2023-04-16T11:19:53;94160.00;;;10.83;91.05
21588;BME280;10956;48.878;13.316;2023-04-16T11:22:18;94168.41;;;10.85;91.62
21588;BME280;10956;48.878;13.316;2023-04-16T11:24:46;94163.63;;;10.97;92.14
21588;BME280;10956;48.878;13.316;2023-04-16T11:27:14;94168.63;;;11.09;91.50
21588;BME280;10956;48.878;13.316;2023-04-16T11:29:40;94172.53;;;11.21;91.05
21588;BME280;10956;48.878;13.316;2023-04-16T11:32:06;94179.88;;;11.29;90.55
21588;BME280;10956;48.878;13.316;2023-04-16T11:34:31;94178.31;;;11.28;90.58
21588;BME280;10956;48.878;13.316;2023-04-16T11:36:57;94180.97;;;11.23;91.99
21588;BME280;10956;48.878;13.316;2023-04-16T11:39:23;94180.50;;;11.06;91.68
21588;BME280;10956;48.878;13.316;2023-04-16T11:41:50;94190.81;;;10.92;92.41
21588;BME280;10956;48.878;13.316;2023-04-16T11:44:20;94188.97;;;10.88;91.85
21588;BME280;10956;48.878;13.316;2023-04-16T11:46:46;94181.06;;;10.88;92.26
21588;BME280;10956;48.878;13.316;2023-04-16T11:49:12;94188.97;;;10.88;92.82
21588;BME280;10956;48.878;13.316;2023-04-16T11:51:41;94192.63;;;11.07;93.45
21588;BME280;10956;48.878;13.316;2023-04-16T11:54:07;94196.78;;;11.28;93.84
21588;BME280;10956;48.878;13.316;2023-04-16T11:56:34;94190.94;;;11.37;95.73
21588;BME280;10956;48.878;13.316;2023-04-16T11:59:14;94194.88;;;11.39;96.81
21588;BME280;10956;48.878;13.316;2023-04-16T12:01:41;94194.59;;;11.41;98.52
21588;BME280;10956;48.878;13.316;2023-04-16T12:04:07;94200.41;;;11.43;99.41
21588;BME280;10956;48.878;13.316;2023-04-16T12:06:33;94201.44;;;11.47;98.38
21588;BME280;10956;48.878;13.316;2023-04-16T12:08:59;94201.91;;;11.64;97.05
21588;BME280;10956;48.878;13.316;2023-04-16T12:11:38;94208.72;;;11.70;96.85
21588;BME280;10956;48.878;13.316;2023-04-16T12:14:11;94203.41;;;11.75;96.45
21588;BME280;10956;48.878;13.316;2023-04-16T12:16:37;94199.22;;;11.79;97.84
21588;BME280;10956;48.878;13.316;2023-04-16T12:19:03;94204.75;;;11.78;98.18
21588;BME280;10956;48.878;13.316;2023-04-16T12:21:55;94204.78;;;11.68;98.66
21588;BME280;10956;48.878;13.316;2023-04-16T12:24:24;94208.31;;;11.43;97.56
21588;BME280;10956;48.878;13.316;2023-04-16T12:26:52;94200.97;;;11.29;98.73
21588;BME280;10956;48.878;13.316;2023-04-16T12:29:23;94211.03;;;11.22;98.11
21588;BME280;10956;48.878;13.316;2023-04-16T12:31:50;94205.19;;;11.36;98.18
21588;BME280;10956;48.878;13.316;2023-04-16T12:34:17;94204.03;;;11.57;97.92
21588;BME280;10956;48.878;13.316;2023-04-16T12:36:44;94197.63;;;11.78;97.45
21588;BME280;10956;48.878;13.316;2023-04-16T12:39:10;94201.03;;;11.84;96.82
21588;BME280;10956;48.878;13.316;2023-04-16T12:41:37;94197.50;;;11.99;96.04
21588;BME280;10956;48.878;13.316;2023-04-16T12:44:11;94188.16;;;12.16;95.37
21588;BME280;10956;48.878;13.316;2023-04-16T12:46:40;94195.66;;;12.38;94.08
21588;BME280;10956;48.878;13.316;2023-04-16T12:49:09;94199.28;;;12.47;93.28
21588;BME280;10956;48.878;13.316;2023-04-16T12:51:36;94201.41;;;12.45;93.13
21588;BME280;10956;48.878;13.316;2023-04-16T12:54:04;94199.34;;;12.37;93.23